createdAt,value
2023-02-16T00:00:26.911Z,97477.84
2023-02-16T00:02:53.240Z,97475.66
2023-02-16T00:05:19.537Z,97472.38
2023-02-16T00:07:45.827Z,97476.75
2023-02-16T00:10:12.142Z,97481.69
2023-02-16T00:12:38.433Z,97476.91
2023-02-16T00:15:04.726Z,97479.34
2023-02-16T00:17:31.038Z,97480.72
2023-02-16T00:19:57.329Z,97473.00
2023-02-16T00:22:23.618Z,97474.56
2023-02-16T00:24:49.917Z,97477.91
2023-02-16T00:27:16.213Z,97474.25
2023-02-16T00:29:45.947Z,97471.91
2023-02-16T00:32:12.528Z,97474.97
2023-02-16T00:34:38.891Z,97468.38
2023-02-16T00:37:05.178Z,97468.09
2023-02-16T00:39:31.491Z,97473.09
2023-02-16T00:41:57.788Z,97473.47
2023-02-16T00:44:24.079Z,97468.53
2023-02-16T00:46:50.449Z,97467.59
2023-02-16T00:49:16.741Z,97464.56
2023-02-16T00:51:43.057Z,97464.19
2023-02-16T00:54:09.370Z,97462.75
2023-02-16T00:56:35.661Z,97469.72
2023-02-16T00:59:01.972Z,97461.88
2023-02-16T01:01:31.073Z,97462.44
2023-02-16T01:03:57.411Z,97459.03
2023-02-16T01:06:23.727Z,97470.94
2023-02-16T01:08:50.049Z,97467.66
2023-02-16T01:11:16.336Z,97470.34
2023-02-16T01:13:42.636Z,97477.53
2023-02-16T01:16:08.980Z,97476.34
2023-02-16T01:18:35.284Z,97480.16
2023-02-16T01:21:01.691Z,97475.44
2023-02-16T01:23:28.109Z,97479.63
2023-02-16T01:25:54.390Z,97477.34
2023-02-16T01:28:20.673Z,97479.66
2023-02-16T01:30:47.037Z,97473.97
2023-02-16T01:33:13.376Z,97477.78
2023-02-16T01:35:39.658Z,97474.50
2023-02-16T01:38:06.005Z,97467.53
2023-02-16T01:40:32.314Z,97475.84
2023-02-16T01:42:58.601Z,97475.38
2023-02-16T01:45:24.927Z,97472.34
2023-02-16T01:47:51.215Z,97462.13
2023-02-16T01:50:17.516Z,97462.66
2023-02-16T01:52:43.861Z,97465.78
2023-02-16T01:55:10.163Z,97459.13
2023-02-16T01:57:36.450Z,97462.16
2023-02-16T02:00:02.764Z,97468.50
2023-02-16T02:02:29.111Z,97467.16
2023-02-16T02:04:55.446Z,97458.09
2023-02-16T02:07:21.779Z,97455.03
2023-02-16T02:09:48.077Z,97456.72
2023-02-16T02:12:14.412Z,97466.19
2023-02-16T02:14:40.727Z,97465.31
2023-02-16T02:17:07.027Z,97471.38
2023-02-16T02:19:33.334Z,97464.28
2023-02-16T02:21:59.642Z,97459.38
2023-02-16T02:24:25.936Z,97457.97
2023-02-16T02:26:52.221Z,97452.78
2023-02-16T02:29:18.516Z,97459.56
2023-02-16T02:31:44.961Z,97458.28
2023-02-16T02:34:11.275Z,97456.25
2023-02-16T02:36:37.579Z,97452.63
2023-02-16T02:39:03.889Z,97453.94
2023-02-16T02:41:30.172Z,97450.53
2023-02-16T02:43:56.495Z,97452.38
2023-02-16T02:46:22.792Z,97443.72
2023-02-16T02:48:49.122Z,97455.94
2023-02-16T02:51:15.448Z,97443.31
2023-02-16T02:53:41.751Z,97447.06
2023-02-16T02:56:08.049Z,97440.28
2023-02-16T02:58:34.412Z,97450.00
2023-02-16T03:01:00.744Z,97445.81
2023-02-16T03:03:27.062Z,97456.28
2023-02-16T03:05:53.371Z,97454.22
2023-02-16T03:08:19.656Z,97447.00
2023-02-16T03:10:45.941Z,97450.66
2023-02-16T03:13:12.250Z,97441.31
2023-02-16T03:15:38.547Z,97450.19
2023-02-16T03:18:04.839Z,97446.75
2023-02-16T03:20:31.160Z,97444.25
2023-02-16T03:22:57.456Z,97445.06
2023-02-16T03:25:23.738Z,97443.94
2023-02-16T03:27:50.061Z,97442.88
2023-02-16T03:30:16.537Z,97441.72
2023-02-16T03:32:43.052Z,97445.81
2023-02-16T03:35:09.395Z,97451.13
2023-02-16T03:37:36.944Z,97454.22
2023-02-16T03:40:03.246Z,97452.03
2023-02-16T03:42:29.544Z,97451.75
2023-02-16T03:44:55.847Z,97451.66
2023-02-16T03:47:22.133Z,97450.31
2023-02-16T03:49:48.445Z,97452.81
2023-02-16T03:52:14.746Z,97454.28
2023-02-16T03:54:41.031Z,97455.94
2023-02-16T03:57:07.348Z,97454.22
2023-02-16T03:59:33.629Z,97447.75
2023-02-16T04:01:59.967Z,97454.22
2023-02-16T04:04:26.517Z,97463.34
2023-02-16T04:06:52.876Z,97462.50
2023-02-16T04:09:19.172Z,97465.72
2023-02-16T04:11:45.488Z,97466.75
2023-02-16T04:14:11.787Z,97466.22
2023-02-16T04:16:38.111Z,97472.16
2023-02-16T04:19:04.430Z,97474.78
2023-02-16T04:21:30.713Z,97471.13
2023-02-16T04:23:57.000Z,97479.13
2023-02-16T04:26:23.323Z,97479.38
2023-02-16T04:28:49.615Z,97475.28
2023-02-16T04:31:15.985Z,97478.75
2023-02-16T04:33:42.341Z,97480.00
2023-02-16T04:36:08.637Z,97481.31
2023-02-16T04:38:34.929Z,97483.09
2023-02-16T04:41:01.474Z,97476.69
2023-02-16T04:43:27.868Z,97481.75
2023-02-16T04:45:54.339Z,97476.69
2023-02-16T04:48:20.722Z,97482.22
2023-02-16T04:50:47.014Z,97485.31
2023-02-16T04:53:13.303Z,97487.81
2023-02-16T04:55:39.624Z,97481.50
2023-02-16T04:58:05.923Z,97480.16
2023-02-16T05:00:32.802Z,97479.28
2023-02-16T05:02:59.952Z,97488.00
2023-02-16T05:05:26.254Z,97492.28
2023-02-16T05:07:52.550Z,97476.88
2023-02-16T05:10:18.901Z,97485.31
2023-02-16T05:12:45.212Z,97481.50
2023-02-16T05:15:11.497Z,97487.81
2023-02-16T05:17:37.827Z,97489.88
2023-02-16T05:20:04.131Z,97496.88
2023-02-16T05:22:30.431Z,97487.09
2023-02-16T05:24:56.747Z,97499.63
2023-02-16T05:27:23.041Z,97495.91
2023-02-16T05:29:49.322Z,97502.13
2023-02-16T05:32:15.700Z,97498.13
2023-02-16T05:34:42.036Z,97501.16
2023-02-16T05:37:08.340Z,97501.06
2023-02-16T05:39:34.648Z,97491.91
2023-02-16T05:42:00.932Z,97504.25
2023-02-16T05:44:27.218Z,97494.31
2023-02-16T05:46:53.531Z,97496.88
2023-02-16T05:49:19.807Z,97492.16
2023-02-16T05:51:46.136Z,97501.63
2023-02-16T05:54:12.457Z,97506.47
2023-02-16T05:56:38.749Z,97516.38
2023-02-16T05:59:05.041Z,97509.06
2023-02-16T06:01:31.369Z,97509.47
2023-02-16T06:03:57.735Z,97507.09
2023-02-16T06:06:24.114Z,97509.84
2023-02-16T06:08:50.433Z,97520.03
2023-02-16T06:11:16.721Z,97508.50
2023-02-16T06:13:43.021Z,97511.50
2023-02-16T06:16:09.402Z,97513.28
2023-02-16T06:18:35.727Z,97513.28
2023-02-16T06:21:02.266Z,97514.06
2023-02-16T06:23:28.714Z,97513.28
2023-02-16T06:25:55.006Z,97519.44
2023-02-16T06:28:21.287Z,97532.06
2023-02-16T06:30:47.591Z,97522.28
2023-02-16T06:33:13.900Z,97527.22
2023-02-16T06:35:40.210Z,97535.56
2023-02-16T06:38:06.518Z,97529.09
2023-02-16T06:40:32.805Z,97530.44
2023-02-16T06:42:59.094Z,97527.28
2023-02-16T06:45:25.410Z,97536.94
2023-02-16T06:47:51.698Z,97531.38
2023-02-16T06:50:17.996Z,97535.19
2023-02-16T06:52:44.337Z,97539.13
2023-02-16T06:55:10.628Z,97541.50
2023-02-16T06:57:36.932Z,97543.66
2023-02-16T07:00:03.403Z,97535.03
2023-02-16T07:02:29.696Z,97538.91
2023-02-16T07:04:56.033Z,97537.94
2023-02-16T07:07:22.397Z,97547.94
2023-02-16T07:09:48.679Z,97535.25
2023-02-16T07:12:14.966Z,97535.88
2023-02-16T07:14:43.121Z,97538.28
2023-02-16T07:17:10.340Z,97536.03
2023-02-16T07:19:36.641Z,97541.44
2023-02-16T07:22:02.994Z,97545.06
2023-02-16T07:24:29.278Z,97535.38
2023-02-16T07:26:55.573Z,97545.66
2023-02-16T07:29:21.876Z,97563.69
2023-02-16T07:31:48.284Z,97548.75
2023-02-16T07:34:14.837Z,97563.81
2023-02-16T07:36:41.141Z,97557.53
2023-02-16T07:39:07.430Z,97551.78
2023-02-16T07:41:33.713Z,97561.78
2023-02-16T07:44:00.016Z,97558.41
2023-02-16T07:46:26.315Z,97556.88
2023-02-16T07:48:52.605Z,97564.91
2023-02-16T07:51:18.914Z,97566.88
2023-02-16T07:53:45.209Z,97567.25
2023-02-16T07:56:11.501Z,97565.31
2023-02-16T07:58:37.822Z,97570.69
2023-02-16T08:01:04.300Z,97570.97
2023-02-16T08:03:30.809Z,97578.84
2023-02-16T08:05:57.120Z,97568.94
2023-02-16T08:08:23.396Z,97577.38
2023-02-16T08:10:49.702Z,97571.97
2023-02-16T08:13:16.028Z,97572.78
2023-02-16T08:15:42.329Z,97570.56
2023-02-16T08:18:08.615Z,97570.94
2023-02-16T08:20:53.926Z,97571.78
2023-02-16T08:23:21.182Z,97582.84
2023-02-16T08:25:47.523Z,97570.13
2023-02-16T08:28:13.820Z,97580.34
2023-02-16T08:30:40.107Z,97573.25
2023-02-16T08:33:06.412Z,97575.00
2023-02-16T08:35:32.726Z,97575.72
2023-02-16T08:37:59.012Z,97570.53
2023-02-16T08:40:25.326Z,97579.44
2023-02-16T08:42:51.622Z,97591.78
2023-02-16T08:45:17.915Z,97594.06
2023-02-16T08:47:44.208Z,97596.91
2023-02-16T08:50:10.503Z,97586.56
2023-02-16T08:52:36.793Z,97593.38
2023-02-16T08:55:03.105Z,97596.06
2023-02-16T08:57:29.406Z,97601.66
2023-02-16T08:59:55.713Z,97602.63
2023-02-16T09:02:22.063Z,97601.84
2023-02-16T09:04:48.887Z,97594.03
2023-02-16T09:07:15.264Z,97598.72
2023-02-16T09:09:42.774Z,97595.44
2023-02-16T09:12:09.125Z,97595.97
2023-02-16T09:14:35.422Z,97594.75
2023-02-16T09:17:01.762Z,97591.28
2023-02-16T09:19:28.098Z,97594.84
2023-02-16T09:21:54.416Z,97609.13
2023-02-16T09:24:20.723Z,97604.34
2023-02-16T09:26:47.055Z,97603.88
2023-02-16T09:29:13.542Z,97601.38
2023-02-16T09:31:40.046Z,97605.78
2023-02-16T09:34:06.382Z,97611.28
2023-02-16T09:36:32.709Z,97608.44
2023-02-16T09:38:59.028Z,97616.13
2023-02-16T09:41:25.311Z,97603.06
2023-02-16T09:43:51.597Z,97618.00
2023-02-16T09:46:18.661Z,97619.09
2023-02-16T09:48:45.829Z,97607.84
2023-02-16T09:51:12.132Z,97606.88
2023-02-16T09:53:38.441Z,97612.34
2023-02-16T09:56:05.146Z,97609.25
2023-02-16T09:58:31.587Z,97607.44
2023-02-16T10:00:57.902Z,97602.66
2023-02-16T10:03:24.188Z,97603.22
2023-02-16T10:05:50.671Z,97600.38
2023-02-16T10:08:17.087Z,97600.66
2023-02-16T10:10:43.374Z,97597.72
2023-02-16T10:13:09.671Z,97604.69
2023-02-16T10:15:36.045Z,97602.69
2023-02-16T10:18:02.407Z,97596.69
2023-02-16T10:20:28.686Z,97604.69
2023-02-16T10:22:54.997Z,97599.50
2023-02-16T10:25:21.273Z,97601.34
2023-02-16T10:27:47.566Z,97598.41
2023-02-16T10:30:13.917Z,97593.84
2023-02-16T10:32:43.955Z,97590.56
2023-02-16T10:35:10.543Z,97586.28
2023-02-16T10:37:36.910Z,97590.00
2023-02-16T10:40:03.214Z,97586.59
2023-02-16T10:42:29.492Z,97589.66
2023-02-16T10:44:55.787Z,97587.78
2023-02-16T10:47:22.299Z,97586.44
2023-02-16T10:49:48.697Z,97583.91
2023-02-16T10:52:15.006Z,97589.47
2023-02-16T10:54:41.302Z,97585.19
2023-02-16T10:57:07.610Z,97579.38
2023-02-16T10:59:33.955Z,97579.06
2023-02-16T11:02:00.251Z,97576.63
2023-02-16T11:04:26.592Z,97574.88
2023-02-16T11:06:52.925Z,97575.22
2023-02-16T11:09:19.213Z,97576.31
2023-02-16T11:11:45.508Z,97569.66
2023-02-16T11:14:11.830Z,97550.44
2023-02-16T11:16:38.126Z,97559.94
2023-02-16T11:19:04.420Z,97550.53
2023-02-16T11:21:30.738Z,97544.44
2023-02-16T11:23:57.022Z,97546.34
2023-02-16T11:26:23.329Z,97535.81
2023-02-16T11:28:49.635Z,97531.16
2023-02-16T11:31:16.017Z,97527.16
2023-02-16T11:33:42.395Z,97514.84
2023-02-16T11:36:08.702Z,97514.88
2023-02-16T11:38:35.074Z,97510.13
2023-02-16T11:41:01.371Z,97505.47
2023-02-16T11:43:27.744Z,97503.22
2023-02-16T11:45:54.031Z,97505.56
2023-02-16T11:48:20.312Z,97504.03
2023-02-16T11:50:46.637Z,97498.50
2023-02-16T11:53:12.946Z,97508.97
2023-02-16T11:55:39.266Z,97508.31
2023-02-16T11:58:05.666Z,97499.38
2023-02-16T12:00:31.973Z,97500.56
2023-02-16T12:02:58.267Z,97485.41
2023-02-16T12:05:24.617Z,97496.00
2023-02-16T12:07:50.965Z,97485.91
2023-02-16T12:10:17.272Z,97478.75
2023-02-16T12:12:43.581Z,97472.41
2023-02-16T12:15:09.873Z,97474.31
2023-02-16T12:17:36.168Z,97469.63
2023-02-16T12:20:02.498Z,97470.81
2023-02-16T12:22:28.805Z,97462.84
2023-02-16T12:24:55.085Z,97463.56
2023-02-16T12:27:21.401Z,97456.88
2023-02-16T12:29:47.688Z,97456.50
2023-02-16T12:32:14.010Z,97443.75
2023-02-16T12:34:40.327Z,97445.34
2023-02-16T12:37:06.628Z,97453.69
2023-02-16T12:39:32.943Z,97446.94
2023-02-16T12:41:59.272Z,97447.34
2023-02-16T12:44:25.566Z,97444.97
2023-02-16T12:46:51.868Z,97434.25
2023-02-16T12:49:18.217Z,97434.25
2023-02-16T12:51:44.516Z,97426.28
2023-02-16T12:54:10.860Z,97434.19
2023-02-16T12:56:37.195Z,97431.06
2023-02-16T12:59:03.500Z,97425.47
2023-02-16T13:01:29.866Z,97429.09
2023-02-16T13:03:56.207Z,97422.31
2023-02-16T13:06:22.525Z,97422.25
2023-02-16T13:08:48.828Z,97414.34
2023-02-16T13:11:15.165Z,97413.53
2023-02-16T13:13:41.481Z,97404.03
2023-02-16T13:16:14.920Z,97400.84
2023-02-16T13:18:50.287Z,97392.50
2023-02-16T13:21:16.581Z,97397.25
2023-02-16T13:23:42.874Z,97386.56
2023-02-16T13:26:09.618Z,97389.31
2023-02-16T13:28:36.293Z,97390.09
2023-02-16T13:31:02.705Z,97377.75
2023-02-16T13:33:29.104Z,97392.50
2023-02-16T13:35:55.401Z,97386.97
2023-02-16T13:38:21.709Z,97387.34
2023-02-16T13:40:48.031Z,97381.78
2023-02-16T13:43:14.358Z,97376.59
2023-02-16T13:45:40.733Z,97377.81
2023-02-16T13:48:07.233Z,97375.44
2023-02-16T13:50:33.540Z,97373.06
2023-02-16T13:52:59.823Z,97370.63
2023-02-16T13:55:26.195Z,97378.22
2023-02-16T13:57:53.991Z,97359.53
2023-02-16T14:00:20.887Z,97361.44
2023-02-16T14:02:47.197Z,97358.34
2023-02-16T14:05:13.495Z,97352.34
2023-02-16T14:07:39.795Z,97355.38
2023-02-16T14:10:06.135Z,97354.69
2023-02-16T14:12:32.433Z,97349.47
2023-02-16T14:14:58.731Z,97359.47
2023-02-16T14:17:25.051Z,97355.88
2023-02-16T14:19:51.351Z,97353.09
2023-02-16T14:22:17.669Z,97349.84
2023-02-16T14:24:43.992Z,97349.56
2023-02-16T14:27:10.291Z,97344.38
2023-02-16T14:29:36.573Z,97340.41
2023-02-16T14:32:02.908Z,97334.81
2023-02-16T14:34:29.223Z,97346.28
2023-02-16T14:36:55.514Z,97344.59
2023-02-16T14:39:22.821Z,97341.69
2023-02-16T14:41:49.225Z,97339.06
2023-02-16T14:44:15.533Z,97338.69
2023-02-16T14:46:41.900Z,97336.72
2023-02-16T14:49:08.198Z,97341.03
2023-02-16T14:51:34.486Z,97337.50
2023-02-16T14:54:00.797Z,97341.88
2023-02-16T14:56:27.464Z,97337.56
2023-02-16T14:58:53.758Z,97335.47
2023-02-16T15:01:20.103Z,97327.50
2023-02-16T15:03:46.444Z,97333.13
2023-02-16T15:06:12.802Z,97336.56
2023-02-16T15:08:39.130Z,97338.44
2023-02-16T15:11:05.430Z,97334.34
2023-02-16T15:13:31.731Z,97340.16
2023-02-16T15:15:58.085Z,97336.53
2023-02-16T15:18:24.400Z,97327.84
2023-02-16T15:20:50.716Z,97329.47
2023-02-16T15:23:17.034Z,97333.41
2023-02-16T15:25:43.345Z,97333.28
2023-02-16T15:28:09.687Z,97329.94
2023-02-16T15:30:35.995Z,97339.16
2023-02-16T15:33:02.499Z,97332.28
2023-02-16T15:35:28.806Z,97332.94
2023-02-16T15:37:55.125Z,97325.84
2023-02-16T15:40:26.233Z,97325.25
2023-02-16T15:42:52.878Z,97331.66
2023-02-16T15:45:19.261Z,97332.88
2023-02-16T15:47:46.279Z,97332.88
2023-02-16T15:50:12.604Z,97330.91
2023-02-16T15:52:38.920Z,97332.94
2023-02-16T15:55:05.210Z,97334.88
2023-02-16T15:57:31.516Z,97330.16
2023-02-16T15:59:57.831Z,97331.31
2023-02-16T16:02:24.128Z,97328.16
2023-02-16T16:04:50.442Z,97333.25
2023-02-16T16:07:16.788Z,97328.25
2023-02-16T16:09:43.104Z,97335.81
2023-02-16T16:12:09.398Z,97324.59
2023-02-16T16:14:35.718Z,97325.00
2023-02-16T16:17:02.024Z,97336.09
2023-02-16T16:19:28.320Z,97342.06
2023-02-16T16:21:54.659Z,97347.97
2023-02-16T16:24:20.952Z,97343.59
2023-02-16T16:26:47.255Z,97338.34
2023-02-16T16:29:13.567Z,97333.47
2023-02-16T16:31:39.958Z,97335.84
2023-02-16T16:34:06.331Z,97325.38
2023-02-16T16:36:32.651Z,97330.94
2023-02-16T16:38:58.957Z,97331.88
2023-02-16T16:41:25.259Z,97337.50
2023-02-16T16:43:51.750Z,97340.97
2023-02-16T16:46:18.079Z,97341.44
2023-02-16T16:48:44.362Z,97350.63
2023-02-16T16:51:10.681Z,97339.88
2023-02-16T16:53:36.978Z,97333.00
2023-02-16T16:56:03.749Z,97329.41
2023-02-16T16:58:30.214Z,97331.25
2023-02-16T17:00:56.517Z,97335.69
2023-02-16T17:03:22.801Z,97343.28
2023-02-16T17:05:49.220Z,97340.56
2023-02-16T17:08:15.524Z,97347.31
2023-02-16T17:10:41.836Z,97346.25
2023-02-16T17:13:08.186Z,97342.63
2023-02-16T17:15:34.467Z,97348.84
2023-02-16T17:18:00.755Z,97349.78
2023-02-16T17:20:27.070Z,97347.44
2023-02-16T17:22:53.366Z,97354.06
2023-02-16T17:25:19.764Z,97354.06
2023-02-16T17:27:46.082Z,97355.28
2023-02-16T17:30:12.440Z,97352.72
2023-02-16T17:32:38.779Z,97356.91
2023-02-16T17:35:05.119Z,97358.16
2023-02-16T17:37:31.415Z,97353.75
2023-02-16T17:39:57.718Z,97363.41
2023-02-16T17:42:24.041Z,97371.78
2023-02-16T17:44:50.463Z,97377.75
2023-02-16T17:47:16.765Z,97382.47
2023-02-16T17:49:43.078Z,97372.13
2023-02-16T17:52:09.350Z,97367.78
2023-02-16T17:54:35.635Z,97369.78
2023-02-16T17:57:01.943Z,97373.78
2023-02-16T17:59:29.957Z,97376.91
2023-02-16T18:01:56.731Z,97371.41
2023-02-16T18:04:23.106Z,97369.75
2023-02-16T18:06:49.483Z,97363.63
2023-02-16T18:09:15.783Z,97362.88
2023-02-16T18:11:42.090Z,97365.69
2023-02-16T18:14:08.376Z,97368.03
2023-02-16T18:16:34.686Z,97365.66
2023-02-16T18:19:01.048Z,97369.69
2023-02-16T18:21:27.336Z,97373.25
2023-02-16T18:23:53.630Z,97372.09
2023-02-16T18:26:20.073Z,97380.41
2023-02-16T18:28:46.392Z,97381.66
2023-02-16T18:31:12.738Z,97390.38
2023-02-16T18:33:39.084Z,97394.00
2023-02-16T18:36:05.663Z,97394.75
2023-02-16T18:38:32.304Z,97405.94
2023-02-16T18:40:58.621Z,97401.59
2023-02-16T18:43:24.935Z,97404.75
2023-02-16T18:45:51.223Z,97400.75
2023-02-16T18:48:17.596Z,97412.31
2023-02-16T18:50:43.905Z,97407.97
2023-02-16T18:53:10.210Z,97423.78
2023-02-16T18:55:36.524Z,97421.03
2023-02-16T18:58:02.819Z,97419.47
2023-02-16T19:00:29.101Z,97426.69
2023-02-16T19:02:55.414Z,97425.06
2023-02-16T19:05:21.702Z,97425.50
2023-02-16T19:07:47.998Z,97425.88
2023-02-16T19:10:14.309Z,97431.84
2023-02-16T19:12:40.608Z,97429.06
2023-02-16T19:15:06.911Z,97431.84
2023-02-16T19:17:33.236Z,97431.84
2023-02-16T19:19:59.542Z,97427.09
2023-02-16T19:22:25.832Z,97430.28
2023-02-16T19:24:52.186Z,97420.69
2023-02-16T19:27:18.487Z,97434.63
2023-02-16T19:29:44.774Z,97433.41
2023-02-16T19:32:11.105Z,97437.34
2023-02-16T19:34:37.450Z,97430.19
2023-02-16T19:37:03.744Z,97433.03
2023-02-16T19:39:30.061Z,97439.75
2023-02-16T19:41:56.344Z,97441.34
2023-02-16T19:44:22.622Z,97442.16
2023-02-16T19:46:48.936Z,97455.31
2023-02-16T19:49:15.238Z,97446.16
2023-02-16T19:51:41.533Z,97436.59
2023-02-16T19:54:07.829Z,97447.31
2023-02-16T19:56:34.106Z,97444.53
2023-02-16T19:59:00.393Z,97442.97
2023-02-16T20:01:26.728Z,97456.47
2023-02-16T20:03:53.042Z,97450.91
2023-02-16T20:06:19.334Z,97452.91
2023-02-16T20:08:45.649Z,97459.69
2023-02-16T20:11:11.955Z,97457.22
2023-02-16T20:13:38.244Z,97459.25
2023-02-16T20:16:04.942Z,97462.06
2023-02-16T20:18:31.444Z,97469.63
2023-02-16T20:20:57.735Z,97470.41
2023-02-16T20:23:24.051Z,97465.63
2023-02-16T20:25:50.343Z,97465.63
2023-02-16T20:28:16.697Z,97467.63
2023-02-16T20:30:43.050Z,97474.38
2023-02-16T20:33:09.330Z,97462.84
2023-02-16T20:35:35.616Z,97480.34
2023-02-16T20:38:01.916Z,97472.38
2023-02-16T20:40:28.202Z,97480.75
2023-02-16T20:42:54.490Z,97473.16
2023-02-16T20:45:20.807Z,97476.34
2023-02-16T20:47:47.090Z,97470.00
2023-02-16T20:50:13.380Z,97464.44
2023-02-16T20:52:39.681Z,97459.69
2023-02-16T20:55:05.981Z,97461.28
2023-02-16T20:57:32.286Z,97459.69
2023-02-16T20:59:58.604Z,97458.88
2023-02-16T21:02:24.943Z,97454.91
2023-02-16T21:04:51.272Z,97460.47
2023-02-16T21:07:17.568Z,97458.47
2023-02-16T21:09:43.867Z,97457.28
2023-02-16T21:12:10.170Z,97443.38
2023-02-16T21:14:36.472Z,97463.66
2023-02-16T21:17:02.770Z,97455.31
2023-02-16T21:19:29.062Z,97458.47
2023-02-16T21:21:55.388Z,97464.44
2023-02-16T21:24:21.694Z,97456.50
2023-02-16T21:26:47.992Z,97462.44
2023-02-16T21:29:14.320Z,97460.44
2023-02-16T21:31:40.674Z,97463.66
2023-02-16T21:34:06.989Z,97472.00
2023-02-16T21:36:33.352Z,97467.22
2023-02-16T21:38:59.641Z,97468.03
2023-02-16T21:41:26.012Z,97459.66
2023-02-16T21:43:52.366Z,97459.28
2023-02-16T21:46:18.652Z,97462.84
2023-02-16T21:48:44.942Z,97461.25
2023-02-16T21:51:11.249Z,97466.03
2023-02-16T21:53:37.539Z,97452.53
2023-02-16T21:56:05.442Z,97461.66
2023-02-16T21:58:31.931Z,97458.50
2023-02-16T22:00:58.245Z,97467.63
2023-02-16T22:03:24.718Z,97470.81
2023-02-16T22:05:51.010Z,97473.19
2023-02-16T22:08:17.331Z,97472.00
2023-02-16T22:10:43.627Z,97466.44
2023-02-16T22:13:09.930Z,97476.75
2023-02-16T22:15:36.215Z,97466.81
2023-02-16T22:18:02.502Z,97471.56
2023-02-16T22:20:28.818Z,97470.00
2023-02-16T22:22:55.108Z,97473.19
2023-02-16T22:25:21.426Z,97478.31
2023-02-16T22:27:47.743Z,97472.34
2023-02-16T22:30:14.077Z,97476.38
2023-02-16T22:32:40.385Z,97475.19
2023-02-16T22:35:06.698Z,97475.16
2023-02-16T22:37:32.990Z,97476.75
2023-02-16T22:39:59.283Z,97471.59
2023-02-16T22:42:25.638Z,97475.16
2023-02-16T22:44:51.943Z,97468.44
2023-02-16T22:47:18.238Z,97472.00
2023-02-16T22:49:44.560Z,97468.81
2023-02-16T22:52:10.861Z,97472.34
2023-02-16T22:54:37.145Z,97479.13
2023-02-16T22:57:03.472Z,97477.13
2023-02-16T22:59:29.761Z,97468.41
2023-02-16T23:01:56.037Z,97474.00
2023-02-16T23:04:22.363Z,97468.44
2023-02-16T23:06:48.655Z,97476.78
2023-02-16T23:09:14.950Z,97471.19
2023-02-16T23:11:41.260Z,97468.41
2023-02-16T23:14:07.550Z,97474.38
2023-02-16T23:16:33.859Z,97472.38
2023-02-16T23:19:00.239Z,97471.59
2023-02-16T23:21:26.570Z,97470.81
2023-02-16T23:23:52.908Z,97463.25
2023-02-16T23:26:19.245Z,97461.66
2023-02-16T23:28:45.554Z,97468.03
2023-02-16T23:31:11.957Z,97473.19
2023-02-16T23:33:38.318Z,97467.59
2023-02-16T23:36:04.846Z,97468.78
2023-02-16T23:38:31.421Z,97470.81
2023-02-16T23:40:57.738Z,97472.41
2023-02-16T23:43:24.040Z,97475.56
2023-02-16T23:45:50.344Z,97470.41
2023-02-16T23:48:16.738Z,97467.63
2023-02-16T23:50:43.030Z,97470.41
2023-02-16T23:53:09.319Z,97470.81
2023-02-16T23:55:35.636Z,97471.59
2023-02-16T23:58:01.927Z,97483.13
